Time,TemperatureF,DewpointF,PressureIn,WindDirection,WindDirectionDegrees,WindSpeedMPH,WindSpeedGustMPH,Humidity,HourlyPrecipIn,Conditions,Clouds,dailyrainin,SoftwareType,DateUTC
2013-11-01 00:00:00,39.4,31.8,30.05,SSW,207,0.0,0.0,74,0.00,,---,0.00,VWS V14.01,2013-11-01 06:00:00,
2013-11-01 00:05:00,39.6,32.3,30.05,SW,235,0.0,0.0,75,0.00,,---,0.00,VWS V14.01,2013-11-01 06:05:00,
2013-11-01 00:10:00,39.6,32.6,30.05,SW,235,0.0,0.0,76,0.00,,---,0.00,VWS V14.01,2013-11-01 06:10:00,
2013-11-01 00:15:00,39.6,32.6,30.05,SW,236,0.0,0.0,76,0.00,,---,0.00,VWS V14.01,2013-11-01 06:15:00,
2013-11-01 00:20:00,39.6,32.6,30.05,SW,236,0.0,0.0,76,0.00,,---,0.00,VWS V14.01,2013-11-01 06:20:00,
2013-11-01 00:25:00,39.7,32.8,30.08,SW,236,0.0,0.0,76,0.00,,---,0.00,VWS V14.01,2013-11-01 06:25:00,
2013-11-01 00:30:00,39.7,32.8,30.08,WSW,254,0.0,0.0,76,0.00,,---,0.00,VWS V14.01,2013-11-01 06:30:00,
2013-11-01 00:35:00,39.7,32.8,30.08,WSW,245,0.0,3.6,76,0.00,,---,0.00,VWS V14.01,2013-11-01 06:35:00,
2013-11-01 00:40:00,39.6,32.6,30.08,WSW,245,0.0,3.6,76,0.00,,---,0.00,VWS V14.01,2013-11-01 06:40:00,
2013-11-01 00:45:00,39.4,32.5,30.08,WSW,245,0.0,3.6,76,0.00,,---,0.00,VWS V14.01,2013-11-01 06:45:00,
2013-11-01 00:50:00,39.4,32.5,30.08,WSW,245,0.0,0.0,76,0.00,,---,0.00,VWS V14.01,2013-11-01 06:50:00,
2013-11-01 00:55:00,39.2,32.3,30.08,WSW,245,0.0,0.0,76,0.00,,---,0.00,VWS V14.01,2013-11-01 06:55:00,
2013-11-01 01:00:00,38.8,31.9,30.08,WSW,245,0.0,0.0,76,0.00,,---,0.00,VWS V14.01,2013-11-01 07:00:00,
2013-11-01 01:05:00,38.7,31.8,30.08,WSW,245,0.0,0.0,76,0.00,,---,0.00,VWS V14.01,2013-11-01 07:05:00,
2013-11-01 01:10:00,38.7,31.8,30.08,WSW,245,0.0,0.0,76,0.00,,---,0.00,VWS V14.01,2013-11-01 07:10:00,
2013-11-01 01:15:00,38.5,31.6,30.08,WSW,250,2.2,2.2,76,0.00,,---,0.00,VWS V14.01,2013-11-01 07:15:00,
2013-11-01 01:20:00,38.3,31.4,30.08,South,179,0.0,3.1,76,0.00,,---,0.00,VWS V14.01,2013-11-01 07:20:00,
2013-11-01 01:24:00,38.3,31.4,30.08,SSW,199,3.6,3.6,76,0.00,,---,0.00,VWS V14.01,2013-11-01 07:24:00,
2013-11-01 01:29:00,38.5,31.6,30.08,SW,224,3.6,4.9,76,0.00,,---,0.00,VWS V14.01,2013-11-01 07:29:00,
2013-11-01 01:34:00,38.5,31.6,30.08,South,190,0.0,4.5,76,0.00,,---,0.00,VWS V14.01,2013-11-01 07:34:00,
2013-11-01 01:39:00,38.7,31.8,30.08,South,174,3.1,4.5,76,0.00,,---,0.00,VWS V14.01,2013-11-01 07:39:00,
2013-11-01 01:44:00,38.7,31.8,30.08,South,182,4.0,5.4,76,0.00,,---,0.00,VWS V14.01,2013-11-01 07:44:00,
2013-11-01 01:49:00,38.7,31.8,30.08,SSW,204,2.2,4.0,76,0.00,,---,0.00,VWS V14.01,2013-11-01 07:49:00,
2013-11-01 01:54:00,38.7,31.8,30.08,SW,223,0.0,4.0,76,0.00,,---,0.00,VWS V14.01,2013-11-01 07:54:00,
2013-11-01 01:59:00,38.7,31.8,30.08,SW,223,0.0,4.0,76,0.00,,---,0.00,VWS V14.01,2013-11-01 07:59:00,
2013-11-01 02:04:00,38.7,31.8,30.08,SW,223,0.0,0.0,76,0.00,,---,0.00,VWS V14.01,2013-11-01 08:04:00,
2013-11-01 02:09:00,38.7,31.8,30.08,SW,223,0.0,0.0,76,0.00,,---,0.00,VWS V14.01,2013-11-01 08:09:00,
2013-11-01 02:14:00,38.8,31.9,30.08,SW,223,0.0,0.0,76,0.00,,---,0.00,VWS V14.01,2013-11-01 08:14:00,
2013-11-01 02:19:00,38.8,31.9,30.08,SW,223,0.0,0.0,76,0.00,,---,0.00,VWS V14.01,2013-11-01 08:19:00,
2013-11-01 02:24:00,38.8,31.9,30.08,SW,232,0.0,0.0,76,0.00,,---,0.00,VWS V14.01,2013-11-01 08:24:00,
2013-11-01 02:29:00,39.0,32.1,30.08,SW,232,0.0,0.0,76,0.00,,---,0.00,VWS V14.01,2013-11-01 08:29:00,
2013-11-01 02:34:00,38.8,31.9,30.08,East,101,0.0,3.1,76,0.00,,---,0.00,VWS V14.01,2013-11-01 08:34:00,
2013-11-01 02:39:00,38.7,31.8,30.08,SE,140,0.0,3.1,76,0.00,,---,0.00,VWS V14.01,2013-11-01 08:39:00,
2013-11-01 02:44:00,38.7,31.8,30.08,SSE,168,0.0,3.1,76,0.00,,---,0.00,VWS V14.01,2013-11-01 08:44:00,
2013-11-01 02:49:00,38.5,31.6,30.08,SSE,168,0.0,0.0,76,0.00,,---,0.00,VWS V14.01,2013-11-01 08:49:00,
2013-11-01 02:54:00,38.5,31.6,30.08,SE,125,0.0,4.0,76,0.00,,---,0.00,VWS V14.01,2013-11-01 08:54:00,
2013-11-01 02:59:00,38.3,31.4,30.08,SSW,197,0.0,4.0,76,0.00,,---,0.00,VWS V14.01,2013-11-01 08:59:00,
2013-11-01 03:04:00,37.9,31.1,30.08,SSW,197,0.0,0.0,76,0.00,,---,0.00,VWS V14.01,2013-11-01 09:04:00,
2013-11-01 03:09:00,37.4,30.2,30.11,SSW,197,0.0,0.0,75,0.00,,---,0.00,VWS V14.01,2013-11-01 09:09:00,
2013-11-01 03:14:00,36.7,29.5,30.11,SSW,197,0.0,0.0,75,0.00,,---,0.00,VWS V14.01,2013-11-01 09:14:00,
2013-11-01 03:19:00,36.7,29.8,30.11,East,87,0.0,0.0,76,0.00,,---,0.00,VWS V14.01,2013-11-01 09:19:00,
2013-11-01 03:24:00,36.9,30.0,30.11,ENE,65,0.0,3.1,76,0.00,,---,0.00,VWS V14.01,2013-11-01 09:24:00,
2013-11-01 03:29:00,37.4,30.5,30.11,SW,218,2.7,3.1,76,0.04,,---,0.04,VWS V14.01,2013-11-01 09:29:00,
2013-11-01 03:34:00,37.6,30.7,30.11,SE,143,0.0,4.0,76,0.04,,---,0.04,VWS V14.01,2013-11-01 09:34:00,
2013-11-01 03:39:00,37.9,31.4,30.08,SE,133,0.0,4.0,77,0.04,,---,0.04,VWS V14.01,2013-11-01 09:39:00,
2013-11-01 03:44:00,38.1,31.6,30.08,South,175,3.6,4.0,77,0.04,,---,0.04,VWS V14.01,2013-11-01 09:44:00,
2013-11-01 03:49:00,38.3,31.7,30.08,South,175,0.0,3.1,77,0.04,,---,0.04,VWS V14.01,2013-11-01 09:49:00,
2013-11-01 03:54:00,37.9,31.1,30.11,South,175,0.0,3.1,76,0.04,,---,0.04,VWS V14.01,2013-11-01 09:54:00,
2013-11-01 03:59:00,37.6,30.7,30.11,South,175,0.0,3.1,76,0.04,,---,0.04,VWS V14.01,2013-11-01 09:59:00,
2013-11-01 04:04:00,37.4,30.5,30.11,South,175,0.0,0.0,76,0.04,,---,0.04,VWS V14.01,2013-11-01 10:04:00,
2013-11-01 04:09:00,37.0,30.2,30.08,South,175,0.0,0.0,76,0.04,,---,0.04,VWS V14.01,2013-11-01 10:09:00,
2013-11-01 04:14:00,37.0,30.2,30.08,South,175,0.0,0.0,76,0.04,,---,0.04,VWS V14.01,2013-11-01 10:14:00,
2013-11-01 04:19:00,37.0,30.5,30.08,South,175,0.0,0.0,77,0.04,,---,0.04,VWS V14.01,2013-11-01 10:19:00,
2013-11-01 04:24:00,37.0,30.5,30.08,South,175,0.0,0.0,77,0.04,,---,0.04,VWS V14.01,2013-11-01 10:24:00,
2013-11-01 04:29:00,37.0,30.5,30.08,South,175,0.0,0.0,77,0.04,,---,0.04,VWS V14.01,2013-11-01 10:29:00,
2013-11-01 04:34:00,37.0,30.2,30.08,South,175,0.0,0.0,76,0.00,,---,0.04,VWS V14.01,2013-11-01 10:34:00,
2013-11-01 04:39:00,37.0,30.5,30.08,South,175,0.0,0.0,77,0.00,,---,0.04,VWS V14.01,2013-11-01 10:39:00,
2013-11-01 04:44:00,37.0,30.5,30.08,South,175,0.0,0.0,77,0.00,,---,0.04,VWS V14.01,2013-11-01 10:44:00,
2013-11-01 04:49:00,36.7,29.8,30.08,South,175,0.0,0.0,76,0.00,,---,0.04,VWS V14.01,2013-11-01 10:49:00,
2013-11-01 04:54:00,36.3,29.5,30.08,South,175,0.0,0.0,76,0.00,,---,0.04,VWS V14.01,2013-11-01 10:54:00,
2013-11-01 04:59:00,36.1,29.3,30.08,South,175,0.0,0.0,76,0.00,,---,0.04,VWS V14.01,2013-11-01 10:59:00,
2013-11-01 05:04:00,36.1,29.3,30.08,South,175,0.0,0.0,76,0.00,,---,0.04,VWS V14.01,2013-11-01 11:04:00,
2013-11-01 05:09:00,36.3,29.5,30.11,South,184,0.0,4.0,76,0.00,,---,0.04,VWS V14.01,2013-11-01 11:09:00,
2013-11-01 05:14:00,36.1,29.3,30.11,South,184,0.0,4.0,76,0.00,,---,0.04,VWS V14.01,2013-11-01 11:14:00,
2013-11-01 05:19:00,35.8,29.0,30.11,South,184,0.0,0.0,76,0.00,,---,0.04,VWS V14.01,2013-11-01 11:19:00,
2013-11-01 05:24:00,35.6,28.8,30.08,South,184,0.0,0.0,76,0.00,,---,0.04,VWS V14.01,2013-11-01 11:24:00,
2013-11-01 05:29:00,35.6,28.8,30.08,WSW,237,0.0,3.1,76,0.00,,---,0.04,VWS V14.01,2013-11-01 11:29:00,
2013-11-01 05:34:00,35.4,28.9,30.08,WSW,237,0.0,0.0,77,0.00,,---,0.04,VWS V14.01,2013-11-01 11:34:00,
2013-11-01 05:39:00,35.1,28.3,30.08,WSW,237,0.0,0.0,76,0.00,,---,0.04,VWS V14.01,2013-11-01 11:39:00,
2013-11-01 05:44:00,34.9,28.1,30.08,WSW,237,0.0,0.0,76,0.00,,---,0.04,VWS V14.01,2013-11-01 11:44:00,
2013-11-01 05:49:00,34.7,27.9,30.08,WSW,237,0.0,0.0,76,0.00,,---,0.04,VWS V14.01,2013-11-01 11:49:00,
2013-11-01 05:54:00,34.5,27.8,30.11,WSW,237,0.0,0.0,76,0.00,,---,0.04,VWS V14.01,2013-11-01 11:54:00,
2013-11-01 05:59:00,34.7,28.2,30.11,WSW,237,0.0,0.0,77,0.00,,---,0.04,VWS V14.01,2013-11-01 11:59:00,
2013-11-01 06:04:00,34.9,28.4,30.11,WSW,237,0.0,0.0,77,0.00,,---,0.04,VWS V14.01,2013-11-01 12:04:00,
2013-11-01 06:09:00,34.9,28.4,30.08,WSW,237,0.0,0.0,77,0.00,,---,0.04,VWS V14.01,2013-11-01 12:09:00,
2013-11-01 06:14:00,34.9,28.4,30.08,WSW,257,0.0,2.2,77,0.00,,---,0.04,VWS V14.01,2013-11-01 12:14:00,
2013-11-01 06:19:00,35.6,29.1,30.08,WSW,257,0.0,0.0,77,0.00,,---,0.04,VWS V14.01,2013-11-01 12:19:00,
2013-11-01 06:24:00,35.6,29.1,30.11,SW,235,0.0,3.1,77,0.00,,---,0.04,VWS V14.01,2013-11-01 12:24:00,
2013-11-01 06:29:00,35.4,28.9,30.11,SW,235,0.0,3.1,77,0.00,,---,0.04,VWS V14.01,2013-11-01 12:29:00,
2013-11-01 06:34:00,35.4,28.9,30.11,SE,140,0.0,0.0,77,0.00,,---,0.04,VWS V14.01,2013-11-01 12:34:00,
2013-11-01 06:39:00,35.6,29.1,30.11,SW,232,0.0,0.0,77,0.00,,---,0.04,VWS V14.01,2013-11-01 12:39:00,
2013-11-01 06:44:00,35.8,29.3,30.11,South,190,2.7,4.0,77,0.00,,---,0.04,VWS V14.01,2013-11-01 12:44:00,
2013-11-01 06:49:00,36.0,29.5,30.11,WSW,245,0.0,4.0,77,0.00,,---,0.04,VWS V14.01,2013-11-01 12:49:00,
2013-11-01 06:54:00,36.1,29.6,30.11,South,190,0.0,4.0,77,0.00,,---,0.04,VWS V14.01,2013-11-01 12:54:00,
2013-11-01 06:59:00,36.9,30.3,30.11,SE,128,0.0,4.0,77,0.00,,---,0.04,VWS V14.01,2013-11-01 12:59:00,
2013-11-01 07:04:00,37.4,30.9,30.11,ESE,122,0.0,2.2,77,0.00,,---,0.04,VWS V14.01,2013-11-01 13:04:00,
2013-11-01 07:09:00,37.6,31.0,30.11,ESE,122,0.0,2.2,77,0.00,,---,0.04,VWS V14.01,2013-11-01 13:09:00,
2013-11-01 07:14:00,37.8,31.2,30.11,ESE,122,0.0,2.2,77,0.00,,---,0.04,VWS V14.01,2013-11-01 13:14:00,
2013-11-01 07:19:00,37.9,31.4,30.11,ESE,122,0.0,0.0,77,0.00,,---,0.04,VWS V14.01,2013-11-01 13:19:00,
2013-11-01 07:24:00,38.1,31.6,30.11,SSE,151,2.2,3.1,77,0.00,,---,0.04,VWS V14.01,2013-11-01 13:24:00,
2013-11-01 07:29:00,38.8,32.6,30.11,SSW,196,3.6,5.8,78,0.00,,---,0.04,VWS V14.01,2013-11-01 13:29:00,
2013-11-01 07:34:00,39.0,32.8,30.11,South,180,3.1,4.0,78,0.00,,---,0.04,VWS V14.01,2013-11-01 13:34:00,
2013-11-01 07:39:00,39.2,32.6,30.11,SSE,166,0.0,4.0,77,0.00,,---,0.04,VWS V14.01,2013-11-01 13:39:00,
2013-11-01 07:44:00,39.2,32.6,30.11,SE,137,2.7,4.0,77,0.00,,---,0.04,VWS V14.01,2013-11-01 13:44:00,
2013-11-01 07:49:00,38.8,32.3,30.11,SE,133,2.2,3.1,77,0.00,,---,0.04,VWS V14.01,2013-11-01 13:49:00,
2013-11-01 07:54:00,38.8,32.3,30.11,ESE,121,0.0,3.1,77,0.00,,---,0.04,VWS V14.01,2013-11-01 13:54:00,
2013-11-01 07:59:00,39.0,32.4,30.11,ESE,102,3.1,4.0,77,0.00,,---,0.04,VWS V14.01,2013-11-01 13:59:00,
2013-11-01 08:04:00,39.0,32.4,30.11,East,97,0.0,2.7,77,0.00,,---,0.04,VWS V14.01,2013-11-01 14:04:00,
2013-11-01 08:09:00,38.8,32.3,30.11,SSW,194,0.0,2.7,77,0.00,,---,0.04,VWS V14.01,2013-11-01 14:09:00,
2013-11-01 08:14:00,38.7,32.1,30.11,SSW,194,0.0,2.7,77,0.00,,---,0.04,VWS V14.01,2013-11-01 14:14:00,
2013-11-01 08:19:00,38.8,32.3,30.11,SE,127,0.0,3.6,77,0.00,,---,0.04,VWS V14.01,2013-11-01 14:19:00,
2013-11-01 08:24:00,38.8,32.3,30.11,SE,127,0.0,3.6,77,0.00,,---,0.04,VWS V14.01,2013-11-01 14:24:00,
2013-11-01 08:29:00,38.7,32.1,30.11,SE,127,0.0,3.6,77,0.00,,---,0.04,VWS V14.01,2013-11-01 14:29:00,
2013-11-01 08:34:00,38.7,32.1,30.11,SE,127,0.0,0.0,77,0.00,,---,0.04,VWS V14.01,2013-11-01 14:34:00,
2013-11-01 08:39:00,38.7,32.1,30.11,SE,127,0.0,0.0,77,0.00,,---,0.04,VWS V14.01,2013-11-01 14:39:00,
2013-11-01 08:44:00,38.5,31.9,30.11,SE,127,0.0,0.0,77,0.00,,---,0.04,VWS V14.01,2013-11-01 14:44:00,
2013-11-01 08:49:00,38.5,31.9,30.11,SE,127,0.0,0.0,77,0.00,,---,0.04,VWS V14.01,2013-11-01 14:49:00,
2013-11-01 08:54:00,38.5,31.9,30.11,SE,127,0.0,0.0,77,0.00,,---,0.04,VWS V14.01,2013-11-01 14:54:00,
2013-11-01 08:59:00,38.5,31.9,30.11,SE,127,0.0,0.0,77,0.00,,---,0.04,VWS V14.01,2013-11-01 14:59:00,
2013-11-01 09:04:00,38.7,32.1,30.11,SE,127,0.0,0.0,77,0.00,,---,0.04,VWS V14.01,2013-11-01 15:04:00,
2013-11-01 09:09:00,38.8,32.3,30.14,SE,127,0.0,0.0,77,0.00,,---,0.04,VWS V14.01,2013-11-01 15:09:00,
2013-11-01 09:14:00,39.2,32.3,30.14,SE,127,0.0,0.0,76,0.00,,---,0.04,VWS V14.01,2013-11-01 15:14:00,
2013-11-01 09:19:00,39.4,32.8,30.14,SE,127,0.0,0.0,77,0.00,,---,0.04,VWS V14.01,2013-11-01 15:19:00,
2013-11-01 09:24:00,39.9,33.3,30.14,WSW,242,0.0,0.0,77,0.00,,---,0.04,VWS V14.01,2013-11-01 15:24:00,
2013-11-01 09:29:00,40.5,33.8,30.14,WSW,243,0.0,0.0,77,0.00,,---,0.04,VWS V14.01,2013-11-01 15:29:00,
2013-11-01 09:34:00,41.2,34.5,30.14,East,93,2.2,4.0,77,0.00,,---,0.04,VWS V14.01,2013-11-01 15:34:00,
2013-11-01 09:39:00,41.7,35.0,30.14,ESE,110,0.0,4.0,77,0.00,,---,0.04,VWS V14.01,2013-11-01 15:39:00,
2013-11-01 09:44:00,41.7,35.0,30.14,WSW,256,0.0,4.0,77,0.00,,---,0.04,VWS V14.01,2013-11-01 15:44:00,
2013-11-01 09:49:00,41.9,35.2,30.14,SE,127,2.7,3.6,77,0.00,,---,0.04,VWS V14.01,2013-11-01 15:49:00,
2013-11-01 09:54:00,42.1,35.1,30.14,SE,127,0.0,3.6,76,0.00,,---,0.04,VWS V14.01,2013-11-01 15:54:00,
2013-11-01 09:59:00,42.6,35.6,30.14,East,86,3.1,3.6,76,0.00,,---,0.04,VWS V14.01,2013-11-01 15:59:00,
2013-11-01 10:04:00,44.1,37.3,30.14,ENE,77,0.0,4.5,77,0.00,,---,0.04,VWS V14.01,2013-11-01 16:04:00,
2013-11-01 10:09:00,44.6,37.5,30.14,ENE,77,0.0,4.5,76,0.00,,---,0.04,VWS V14.01,2013-11-01 16:09:00,
2013-11-01 10:14:00,44.6,37.5,30.14,ENE,77,0.0,4.5,76,0.00,,---,0.04,VWS V14.01,2013-11-01 16:14:00,
2013-11-01 10:19:00,44.6,37.2,30.14,SE,128,0.0,3.6,75,0.00,,---,0.04,VWS V14.01,2013-11-01 16:19:00,
2013-11-01 10:24:00,45.0,37.9,30.14,SE,128,0.0,3.6,76,0.00,,---,0.04,VWS V14.01,2013-11-01 16:24:00,
2013-11-01 10:29:00,46.4,39.3,30.14,SE,128,0.0,3.6,76,0.00,,---,0.04,VWS V14.01,2013-11-01 16:29:00,
2013-11-01 10:34:00,46.8,39.6,30.14,SE,128,0.0,0.0,76,0.00,,---,0.04,VWS V14.01,2013-11-01 16:34:00,
2013-11-01 10:39:00,46.8,39.3,30.14,SE,128,0.0,0.0,75,0.00,,---,0.04,VWS V14.01,2013-11-01 16:39:00,
2013-11-01 10:44:00,46.6,39.1,30.14,East,87,0.0,0.0,75,0.00,,---,0.04,VWS V14.01,2013-11-01 16:44:00,
2013-11-01 10:49:00,46.0,38.6,30.14,SSE,149,0.0,4.9,75,0.00,,---,0.04,VWS V14.01,2013-11-01 16:49:00,
2013-11-01 10:54:00,46.0,38.6,30.14,SSE,149,0.0,4.9,75,0.00,,---,0.04,VWS V14.01,2013-11-01 16:54:00,
2013-11-01 10:59:00,46.6,39.1,30.14,SSE,149,0.0,4.9,75,0.00,,---,0.04,VWS V14.01,2013-11-01 16:59:00,
2013-11-01 11:04:00,46.9,39.4,30.14,SSE,149,0.0,0.0,75,0.00,,---,0.04,VWS V14.01,2013-11-01 17:04:00,
2013-11-01 11:09:00,47.3,39.8,30.14,SSE,149,0.0,0.0,75,0.00,,---,0.04,VWS V14.01,2013-11-01 17:09:00,
2013-11-01 11:14:00,47.3,39.8,30.14,SSE,149,0.0,0.0,75,0.00,,---,0.04,VWS V14.01,2013-11-01 17:14:00,
2013-11-01 11:19:00,47.3,39.8,30.14,SSE,149,0.0,0.0,75,0.00,,---,0.04,VWS V14.01,2013-11-01 17:19:00,
2013-11-01 11:24:00,47.5,40.0,30.11,ESE,109,0.0,3.6,75,0.00,,---,0.04,VWS V14.01,2013-11-01 17:24:00,
2013-11-01 11:29:00,47.5,40.0,30.11,ESE,109,0.0,3.6,75,0.00,,---,0.04,VWS V14.01,2013-11-01 17:29:00,
2013-11-01 11:34:00,47.5,39.6,30.11,ESE,109,0.0,2.7,74,0.00,,---,0.04,VWS V14.01,2013-11-01 17:34:00,
2013-11-01 11:39:00,48.6,40.7,30.11,ESE,109,0.0,2.7,74,0.00,,---,0.04,VWS V14.01,2013-11-01 17:39:00,
2013-11-01 11:44:00,49.5,41.5,30.11,WSW,238,0.0,4.0,74,0.00,,---,0.04,VWS V14.01,2013-11-01 17:44:00,
2013-11-01 11:49:00,49.6,41.3,30.11,SSE,156,0.0,3.6,73,0.00,,---,0.04,VWS V14.01,2013-11-01 17:49:00,
2013-11-01 11:54:00,49.8,40.8,30.11,West,273,0.0,3.6,71,0.00,,---,0.04,VWS V14.01,2013-11-01 17:54:00,
2013-11-01 11:59:00,50.2,41.2,30.11,West,273,0.0,3.6,71,0.00,,---,0.04,VWS V14.01,2013-11-01 17:59:00,
2013-11-01 12:04:00,50.9,42.2,30.11,West,273,0.0,0.0,72,0.00,,---,0.04,VWS V14.01,2013-11-01 18:04:00,
2013-11-01 12:09:00,52.2,42.3,30.11,ESE,122,0.0,2.7,69,0.00,,---,0.04,VWS V14.01,2013-11-01 18:09:00,
2013-11-01 12:14:00,52.7,42.5,30.11,ESE,119,3.1,4.0,68,0.00,,---,0.04,VWS V14.01,2013-11-01 18:14:00,
2013-11-01 12:19:00,54.0,42.9,30.11,SW,235,2.7,3.6,66,0.00,,---,0.04,VWS V14.01,2013-11-01 18:19:00,
2013-11-01 12:24:00,56.7,43.4,30.11,SW,230,3.1,5.8,61,0.00,,---,0.04,VWS V14.01,2013-11-01 18:24:00,
2013-11-01 12:29:00,57.0,41.5,30.11,SSW,203,4.0,5.8,56,0.00,,---,0.04,VWS V14.01,2013-11-01 18:29:00,
2013-11-01 12:34:00,57.9,42.8,30.11,ESE,119,0.0,4.0,57,0.00,,---,0.04,VWS V14.01,2013-11-01 18:34:00,
2013-11-01 12:39:00,58.6,38.5,30.11,SW,214,0.0,9.6,47,0.00,,---,0.04,VWS V14.01,2013-11-01 18:39:00,
2013-11-01 12:44:00,58.3,36.5,30.11,SW,231,0.0,9.6,44,0.00,,---,0.04,VWS V14.01,2013-11-01 18:44:00,
2013-11-01 12:49:00,58.1,27.6,30.11,North,353,0.0,0.0,31,0.00,,---,0.04,VWS V14.01,2013-11-01 18:49:00,
2013-11-01 12:54:00,55.4,20.2,30.11,North,353,0.0,2.2,25,0.00,,---,0.04,VWS V14.01,2013-11-01 18:54:00,
2013-11-01 12:59:00,53.8,22.3,30.11,NNW,345,0.0,5.8,29,0.00,,---,0.04,VWS V14.01,2013-11-01 18:59:00,
2013-11-01 13:04:00,53.8,20.6,30.11,West,267,0.0,3.1,27,0.00,,---,0.04,VWS V14.01,2013-11-01 19:04:00,
2013-11-01 13:09:00,55.4,21.1,30.11,North,349,2.7,3.1,26,0.00,,---,0.04,VWS V14.01,2013-11-01 19:09:00,
2013-11-01 13:14:00,56.8,23.2,30.11,SW,215,2.7,5.8,27,0.00,,---,0.04,VWS V14.01,2013-11-01 19:14:00,
2013-11-01 13:19:00,58.3,22.6,30.11,NNW,336,0.0,5.8,25,0.00,,---,0.04,VWS V14.01,2013-11-01 19:19:00,
2013-11-01 13:24:00,57.6,23.0,30.11,SW,226,8.1,8.1,26,0.00,,---,0.04,VWS V14.01,2013-11-01 19:24:00,
2013-11-01 13:29:00,58.5,24.6,30.11,SW,219,7.6,8.1,27,0.00,,---,0.04,VWS V14.01,2013-11-01 19:29:00,
2013-11-01 13:34:00,57.7,22.2,30.11,SSE,167,5.4,8.7,25,0.00,,---,0.04,VWS V14.01,2013-11-01 19:34:00,
2013-11-01 13:39:00,58.1,22.5,30.11,West,259,4.9,8.7,25,0.00,,---,0.04,VWS V14.01,2013-11-01 19:39:00,
2013-11-01 13:44:00,58.3,23.6,30.11,SW,234,2.7,8.7,26,0.00,,---,0.04,VWS V14.01,2013-11-01 19:44:00,
2013-11-01 13:49:00,59.7,23.9,30.11,West,267,6.7,6.7,25,0.00,,---,0.04,VWS V14.01,2013-11-01 19:49:00,
2013-11-01 13:54:00,60.3,23.4,30.11,SSW,207,5.8,8.3,24,0.00,,---,0.04,VWS V14.01,2013-11-01 19:54:00,
2013-11-01 13:59:00,59.4,22.6,30.11,SSW,203,8.1,9.6,24,0.00,,---,0.04,VWS V14.01,2013-11-01 19:59:00,
2013-11-01 14:04:00,59.2,22.4,30.11,WSW,240,5.4,8.3,24,0.00,,---,0.04,VWS V14.01,2013-11-01 20:04:00,
2013-11-01 14:09:00,60.1,23.2,30.11,SSW,205,2.7,8.3,24,0.00,,---,0.04,VWS V14.01,2013-11-01 20:09:00,
2013-11-01 14:14:00,59.9,23.0,30.11,West,264,5.4,8.3,24,0.00,,---,0.04,VWS V14.01,2013-11-01 20:14:00,
2013-11-01 14:19:00,59.9,23.0,30.11,West,260,4.0,6.3,24,0.00,,---,0.04,VWS V14.01,2013-11-01 20:19:00,
2013-11-01 14:24:00,59.5,20.7,30.11,WSW,243,8.3,8.7,22,0.00,,---,0.04,VWS V14.01,2013-11-01 20:24:00,
2013-11-01 14:29:00,59.4,20.5,30.11,SSW,192,4.0,8.7,22,0.00,,---,0.04,VWS V14.01,2013-11-01 20:29:00,
2013-11-01 14:34:00,58.8,20.1,30.11,SE,144,2.7,8.7,22,0.00,,---,0.04,VWS V14.01,2013-11-01 20:34:00,
2013-11-01 14:39:00,59.4,22.6,30.11,SSW,198,6.3,8.7,24,0.00,,---,0.04,VWS V14.01,2013-11-01 20:39:00,
2013-11-01 14:44:00,59.9,21.0,30.11,West,265,3.1,8.7,22,0.00,,---,0.04,VWS V14.01,2013-11-01 20:44:00,
2013-11-01 14:49:00,59.9,23.0,30.11,WSW,240,4.0,8.3,24,0.00,,---,0.04,VWS V14.01,2013-11-01 20:49:00,
2013-11-01 14:54:00,58.1,19.5,30.11,NW,325,3.6,8.3,22,0.00,,---,0.04,VWS V14.01,2013-11-01 20:54:00,
2013-11-01 14:59:00,56.8,21.4,30.11,WNW,286,0.0,8.3,25,0.00,,---,0.04,VWS V14.01,2013-11-01 20:59:00,
2013-11-01 15:04:00,55.2,18.1,30.11,WSW,245,3.1,3.6,23,0.00,,---,0.04,VWS V14.01,2013-11-01 21:04:00,
2013-11-01 15:09:00,53.6,16.7,30.11,West,263,0.0,6.3,23,0.00,,---,0.04,VWS V14.01,2013-11-01 21:09:00,
2013-11-01 15:14:00,52.5,18.6,30.11,WSW,258,0.0,6.3,26,0.00,,---,0.04,VWS V14.01,2013-11-01 21:14:00,
2013-11-01 15:19:00,51.6,17.9,30.11,WSW,253,0.0,3.1,26,0.00,,---,0.04,VWS V14.01,2013-11-01 21:19:00,
2013-11-01 15:24:00,51.6,17.9,30.08,WSW,255,0.0,3.1,26,0.00,,---,0.04,VWS V14.01,2013-11-01 21:24:00,
2013-11-01 15:29:00,52.2,18.3,30.08,WNW,282,2.7,3.1,26,0.00,,---,0.04,VWS V14.01,2013-11-01 21:29:00,
2013-11-01 15:34:00,54.9,20.6,30.08,WSW,243,0.0,3.1,26,0.00,,---,0.04,VWS V14.01,2013-11-01 21:34:00,
2013-11-01 15:39:00,56.3,21.0,30.08,WSW,246,0.0,3.1,25,0.00,,---,0.04,VWS V14.01,2013-11-01 21:39:00,
2013-11-01 15:44:00,56.8,21.4,30.08,WSW,257,0.0,4.0,25,0.00,,---,0.04,VWS V14.01,2013-11-01 21:44:00,
2013-11-01 15:49:00,56.8,21.4,30.08,WSW,248,3.6,3.6,25,0.00,,---,0.04,VWS V14.01,2013-11-01 21:49:00,
2013-11-01 15:54:00,58.1,21.5,30.08,SW,229,2.7,5.8,24,0.00,,---,0.04,VWS V14.01,2013-11-01 21:54:00,
2013-11-01 15:59:00,59.9,23.0,30.08,NW,316,0.0,5.8,24,0.00,,---,0.04,VWS V14.01,2013-11-01 21:59:00,
2013-11-01 16:04:00,59.2,22.4,30.08,West,259,0.0,4.0,24,0.00,,---,0.04,VWS V14.01,2013-11-01 22:04:00,
2013-11-01 16:09:00,57.6,21.1,30.08,WNW,284,2.2,4.0,24,0.00,,---,0.04,VWS V14.01,2013-11-01 22:09:00,
2013-11-01 16:14:00,55.4,20.2,30.08,WSW,245,2.7,5.4,25,0.00,,---,0.04,VWS V14.01,2013-11-01 22:14:00,
2013-11-01 16:19:00,54.5,19.4,30.08,West,273,0.0,0.0,25,0.00,,---,0.04,VWS V14.01,2013-11-01 22:19:00,
2013-11-01 16:24:00,53.6,18.6,30.08,West,273,0.0,0.0,25,0.00,,---,0.04,VWS V14.01,2013-11-01 22:24:00,
2013-11-01 16:29:00,52.2,18.3,30.08,West,267,0.0,0.0,26,0.00,,---,0.04,VWS V14.01,2013-11-01 22:29:00,
2013-11-01 16:34:00,51.4,17.7,30.08,West,267,0.0,0.0,26,0.00,,---,0.04,VWS V14.01,2013-11-01 22:34:00,
2013-11-01 16:39:00,50.7,17.1,30.08,West,267,0.0,0.0,26,0.00,,---,0.04,VWS V14.01,2013-11-01 22:39:00,
2013-11-01 16:44:00,50.5,17.0,30.08,West,267,0.0,0.0,26,0.00,,---,0.04,VWS V14.01,2013-11-01 22:44:00,
2013-11-01 16:49:00,50.4,16.8,30.08,West,267,0.0,0.0,26,0.00,,---,0.04,VWS V14.01,2013-11-01 22:49:00,
2013-11-01 16:54:00,50.4,16.8,30.08,West,267,0.0,0.0,26,0.00,,---,0.04,VWS V14.01,2013-11-01 22:54:00,
2013-11-01 16:59:00,50.7,17.1,30.08,West,267,0.0,0.0,26,0.00,,---,0.04,VWS V14.01,2013-11-01 22:59:00,
2013-11-01 17:04:00,50.5,17.0,30.08,West,267,0.0,0.0,26,0.00,,---,0.04,VWS V14.01,2013-11-01 23:04:00,
2013-11-01 17:09:00,50.5,17.0,30.08,West,267,0.0,0.0,26,0.00,,---,0.04,VWS V14.01,2013-11-01 23:09:00,
2013-11-01 17:14:00,50.4,17.7,30.08,West,267,0.0,0.0,27,0.00,,---,0.04,VWS V14.01,2013-11-01 23:14:00,
2013-11-01 17:19:00,50.2,17.5,30.08,West,267,0.0,0.0,27,0.00,,---,0.04,VWS V14.01,2013-11-01 23:19:00,
2013-11-01 17:24:00,50.2,17.5,30.08,West,267,0.0,0.0,27,0.00,,---,0.04,VWS V14.01,2013-11-01 23:24:00,
2013-11-01 17:29:00,49.8,17.2,30.08,West,267,0.0,0.0,27,0.00,,---,0.04,VWS V14.01,2013-11-01 23:29:00,
2013-11-01 17:34:00,49.6,17.0,30.08,WNW,283,0.0,0.0,27,0.00,,---,0.04,VWS V14.01,2013-11-01 23:34:00,
2013-11-01 17:38:00,49.5,16.9,30.08,NW,323,0.0,0.0,27,0.00,,---,0.04,VWS V14.01,2013-11-01 23:38:00,
2013-11-01 17:43:00,49.5,17.7,30.08,NW,323,0.0,0.0,28,0.00,,---,0.04,VWS V14.01,2013-11-01 23:43:00,
2013-11-01 17:48:00,49.3,17.6,30.08,NW,322,0.0,0.0,28,0.00,,---,0.04,VWS V14.01,2013-11-01 23:48:00,
2013-11-01 17:53:00,49.1,17.4,30.08,NW,323,0.0,0.0,28,0.00,,---,0.04,VWS V14.01,2013-11-01 23:53:00,
2013-11-01 17:58:00,48.9,17.3,30.08,NW,322,0.0,0.0,28,0.00,,---,0.04,VWS V14.01,2013-11-01 23:58:00,
2013-11-01 18:03:00,48.7,17.1,30.08,NW,324,0.0,0.0,28,0.00,,---,0.04,VWS V14.01,2013-11-02 00:03:00,
2013-11-01 18:09:00,48.4,16.8,30.08,NW,324,0.0,0.0,28,0.00,,---,0.04,VWS V14.01,2013-11-02 00:09:00,
2013-11-01 18:14:00,48.2,16.6,30.08,NW,324,0.0,0.0,28,0.00,,---,0.04,VWS V14.01,2013-11-02 00:14:00,
2013-11-01 18:19:00,47.8,17.1,30.08,NW,324,0.0,0.0,29,0.00,,---,0.04,VWS V14.01,2013-11-02 00:19:00,
2013-11-01 18:24:00,46.9,16.4,30.08,NW,324,0.0,0.0,29,0.00,,---,0.04,VWS V14.01,2013-11-02 00:24:00,
2013-11-01 18:29:00,45.9,15.4,30.08,NW,324,0.0,0.0,29,0.00,,---,0.04,VWS V14.01,2013-11-02 00:29:00,
2013-11-01 18:34:00,44.8,15.3,30.08,NW,324,0.0,0.0,30,0.00,,---,0.04,VWS V14.01,2013-11-02 00:34:00,
2013-11-01 18:39:00,43.9,15.2,30.08,NW,324,0.0,0.0,31,0.00,,---,0.04,VWS V14.01,2013-11-02 00:39:00,
2013-11-01 18:44:00,43.2,17.4,30.08,NW,324,0.0,0.0,35,0.00,,---,0.04,VWS V14.01,2013-11-02 00:44:00,
2013-11-01 18:49:00,42.4,18.6,30.08,NW,324,0.0,0.0,38,0.00,,---,0.04,VWS V14.01,2013-11-02 00:49:00,
2013-11-01 18:54:00,42.1,18.3,30.08,NW,324,0.0,0.0,38,0.00,,---,0.04,VWS V14.01,2013-11-02 00:54:00,
2013-11-01 18:59:00,41.2,18.1,30.08,NW,321,0.0,0.0,39,0.00,,---,0.04,VWS V14.01,2013-11-02 00:59:00,
2013-11-01 19:04:00,41.0,18.0,30.08,NW,320,0.0,0.0,39,0.00,,---,0.04,VWS V14.01,2013-11-02 01:04:00,
2013-11-01 19:09:00,41.0,18.5,30.08,NW,320,0.0,0.0,40,0.00,,---,0.04,VWS V14.01,2013-11-02 01:09:00,
2013-11-01 19:14:00,41.0,18.5,30.08,West,269,0.0,0.0,40,0.00,,---,0.04,VWS V14.01,2013-11-02 01:14:00,
2013-11-01 19:19:00,41.0,18.5,30.08,WSW,256,0.0,0.0,40,0.00,,---,0.04,VWS V14.01,2013-11-02 01:19:00,
2013-11-01 19:24:00,41.0,18.5,30.08,WSW,256,0.0,0.0,40,0.00,,---,0.04,VWS V14.01,2013-11-02 01:24:00,
2013-11-01 19:29:00,40.8,18.4,30.08,WSW,256,0.0,0.0,40,0.00,,---,0.04,VWS V14.01,2013-11-02 01:29:00,
2013-11-01 19:34:00,40.8,19.0,30.08,WSW,256,0.0,0.0,41,0.00,,---,0.04,VWS V14.01,2013-11-02 01:34:00,
2013-11-01 19:39:00,40.6,18.8,30.08,WSW,256,0.0,0.0,41,0.00,,---,0.04,VWS V14.01,2013-11-02 01:39:00,
2013-11-01 19:44:00,40.5,18.6,30.08,WSW,256,0.0,0.0,41,0.00,,---,0.04,VWS V14.01,2013-11-02 01:44:00,
2013-11-01 19:49:00,40.1,18.3,30.08,WSW,256,0.0,0.0,41,0.00,,---,0.04,VWS V14.01,2013-11-02 01:49:00,
2013-11-01 19:54:00,39.9,18.7,30.08,WSW,256,0.0,0.0,42,0.00,,---,0.04,VWS V14.01,2013-11-02 01:54:00,
2013-11-01 19:59:00,39.7,18.5,30.08,WSW,256,0.0,0.0,42,0.00,,---,0.04,VWS V14.01,2013-11-02 01:59:00,
2013-11-01 20:04:00,39.2,18.0,30.08,WSW,256,0.0,0.0,42,0.00,,---,0.04,VWS V14.01,2013-11-02 02:04:00,
2013-11-01 20:09:00,39.0,18.4,30.08,WSW,251,0.0,0.0,43,0.00,,---,0.04,VWS V14.01,2013-11-02 02:09:00,
2013-11-01 20:14:00,39.0,18.4,30.08,WSW,251,0.0,0.0,43,0.00,,---,0.04,VWS V14.01,2013-11-02 02:14:00,
2013-11-01 20:19:00,38.8,18.3,30.08,SSE,155,3.6,4.0,43,0.00,,---,0.04,VWS V14.01,2013-11-02 02:19:00,
2013-11-01 20:24:00,38.5,17.9,30.08,SSE,155,0.0,4.0,43,0.00,,---,0.04,VWS V14.01,2013-11-02 02:24:00,
2013-11-01 20:29:00,38.1,17.6,30.08,SSE,155,0.0,4.0,43,0.00,,---,0.00,VWS V14.01,2013-11-02 02:29:00,
2013-11-01 20:34:00,37.8,17.3,30.08,SSE,155,0.0,0.0,43,0.00,,---,0.04,VWS V14.01,2013-11-02 02:34:00,
2013-11-01 20:39:00,37.2,16.8,30.08,SSE,161,0.0,0.0,43,0.00,,---,0.04,VWS V14.01,2013-11-02 02:39:00,
2013-11-01 20:44:00,36.5,16.7,30.08,SSE,160,0.0,0.0,44,0.00,,---,0.04,VWS V14.01,2013-11-02 02:44:00,
2013-11-01 20:49:00,36.1,16.9,30.08,West,259,0.0,0.0,45,0.00,,---,0.04,VWS V14.01,2013-11-02 02:49:00,
2013-11-01 20:54:00,36.1,17.9,30.08,West,259,0.0,0.0,47,0.00,,---,0.04,VWS V14.01,2013-11-02 02:54:00,
2013-11-01 20:59:00,36.3,18.5,30.08,SSW,204,0.0,0.0,48,0.00,,---,0.04,VWS V14.01,2013-11-02 02:59:00,
2013-11-01 21:04:00,36.3,18.0,30.08,SSW,204,0.0,0.0,47,0.00,,---,0.04,VWS V14.01,2013-11-02 03:04:00,
2013-11-01 21:09:00,36.0,17.2,30.08,SSW,204,0.0,0.0,46,0.00,,---,0.04,VWS V14.01,2013-11-02 03:09:00,
2013-11-01 21:14:00,35.4,17.2,30.08,SSW,204,0.0,0.0,47,0.00,,---,0.04,VWS V14.01,2013-11-02 03:14:00,
2013-11-01 21:19:00,35.1,17.4,30.08,WSW,243,0.0,0.0,48,0.00,,---,0.04,VWS V14.01,2013-11-02 03:19:00,
2013-11-01 21:24:00,34.9,16.7,30.05,SW,232,0.0,0.0,47,0.00,,---,0.04,VWS V14.01,2013-11-02 03:24:00,
2013-11-01 21:29:00,35.1,17.4,30.05,SW,232,0.0,0.0,48,0.00,,---,0.04,VWS V14.01,2013-11-02 03:29:00,
2013-11-01 21:34:00,34.7,17.5,30.05,SW,235,0.0,0.0,49,0.00,,---,0.04,VWS V14.01,2013-11-02 03:34:00,
2013-11-01 21:39:00,34.3,17.2,30.05,SW,235,0.0,0.0,49,0.00,,---,0.04,VWS V14.01,2013-11-02 03:39:00,
2013-11-01 21:44:00,34.0,16.8,30.05,WSW,241,0.0,0.0,49,0.00,,---,0.04,VWS V14.01,2013-11-02 03:44:00,
2013-11-01 21:49:00,34.0,16.8,30.05,WSW,241,0.0,0.0,49,0.00,,---,0.04,VWS V14.01,2013-11-02 03:49:00,
2013-11-01 21:54:00,33.8,16.7,30.05,WSW,241,0.0,0.0,49,0.00,,---,0.04,VWS V14.01,2013-11-02 03:54:00,
2013-11-01 21:59:00,33.8,16.7,30.05,WSW,241,0.0,0.0,49,0.00,,---,0.04,VWS V14.01,2013-11-02 03:59:00,
2013-11-01 22:01:00,33.6,17.0,30.05,WSW,241,0.0,0.0,50,0.00,,---,0.04,VWS V14.01,2013-11-02 04:01:00,
2013-11-01 22:06:00,33.3,16.6,30.05,WSW,241,0.0,0.0,50,0.00,,---,0.04,VWS V14.01,2013-11-02 04:06:00,
2013-11-01 22:11:00,33.1,16.9,30.05,WSW,241,0.0,0.0,51,0.00,,---,0.04,VWS V14.01,2013-11-02 04:11:00,
2013-11-01 22:16:00,33.3,17.1,30.05,WSW,241,0.0,0.0,51,0.00,,---,0.04,VWS V14.01,2013-11-02 04:16:00,
2013-11-01 22:21:00,33.3,17.1,30.05,WSW,241,0.0,0.0,51,0.00,,---,0.04,VWS V14.01,2013-11-02 04:21:00,
2013-11-01 22:26:00,33.3,17.1,30.05,WSW,244,0.0,0.0,51,0.00,,---,0.04,VWS V14.01,2013-11-02 04:26:00,
2013-11-01 22:31:00,33.3,17.1,30.05,WSW,244,0.0,0.0,51,0.00,,---,0.04,VWS V14.01,2013-11-02 04:31:00,
2013-11-01 22:36:00,33.3,17.1,30.05,WSW,244,0.0,0.0,51,0.00,,---,0.04,VWS V14.01,2013-11-02 04:36:00,
2013-11-01 22:41:00,33.3,17.5,30.05,WSW,244,0.0,0.0,52,0.00,,---,0.04,VWS V14.01,2013-11-02 04:41:00,
2013-11-01 22:46:00,33.8,17.6,30.05,SSW,206,0.0,0.0,51,0.00,,---,0.04,VWS V14.01,2013-11-02 04:46:00,
2013-11-01 22:51:00,34.2,17.9,30.05,SSW,206,0.0,0.0,51,0.00,,---,0.04,VWS V14.01,2013-11-02 04:51:00,
2013-11-01 22:56:00,34.0,17.8,30.05,SSW,206,0.0,0.0,51,0.00,,---,0.04,VWS V14.01,2013-11-02 04:56:00,
2013-11-01 23:01:00,33.8,17.6,30.05,SW,226,0.0,0.0,51,0.00,,---,0.04,VWS V14.01,2013-11-02 05:01:00,
2013-11-01 23:06:00,33.6,17.4,30.05,SW,231,0.0,0.0,51,0.00,,---,0.04,VWS V14.01,2013-11-02 05:06:00,
2013-11-01 23:11:00,33.4,17.7,30.05,SW,231,0.0,0.0,52,0.00,,---,0.04,VWS V14.01,2013-11-02 05:11:00,
2013-11-01 23:16:00,33.4,17.7,30.05,SW,231,0.0,0.0,52,0.00,,---,0.04,VWS V14.01,2013-11-02 05:16:00,
2013-11-01 23:21:00,33.8,18.0,30.05,SW,221,0.0,0.0,52,0.00,,---,0.04,VWS V14.01,2013-11-02 05:21:00,
2013-11-01 23:26:00,34.0,18.2,30.05,SW,221,0.0,0.0,52,0.00,,---,0.04,VWS V14.01,2013-11-02 05:26:00,
2013-11-01 23:31:00,33.6,17.9,30.05,SW,221,0.0,0.0,52,0.00,,---,0.04,VWS V14.01,2013-11-02 05:31:00,
2013-11-01 23:36:00,33.6,17.9,30.05,SW,221,0.0,0.0,52,0.00,,---,0.04,VWS V14.01,2013-11-02 05:36:00,
2013-11-01 23:41:00,33.6,18.3,30.05,SW,221,0.0,0.0,53,0.00,,---,0.04,VWS V14.01,2013-11-02 05:41:00,
2013-11-01 23:46:00,33.6,18.3,30.05,SW,221,0.0,0.0,53,0.00,,---,0.04,VWS V14.01,2013-11-02 05:46:00,
2013-11-01 23:51:00,34.0,18.7,30.05,SW,221,0.0,0.0,53,0.00,,---,0.04,VWS V14.01,2013-11-02 05:51:00,
2013-11-01 23:56:00,34.5,19.2,30.02,WSW,247,3.1,3.6,53,0.00,,---,0.04,VWS V14.01,2013-11-02 05:56:00,